sensor_id;sensor_type;location;lat;lon;timestamp;P1;durP1;ratioP1;P2;durP2;ratioP2
6280;SDS011;3173;48.204;11.612;2024-02-04T00:00:02;7.40;;;4.70;;
6280;SDS011;3173;48.204;11.612;2024-02-04T00:02:30;7.40;;;4.93;;
6280;SDS011;3173;48.204;11.612;2024-02-04T00:04:56;6.70;;;4.53;;
6280;SDS011;3173;48.204;11.612;2024-02-04T00:07:22;6.40;;;4.37;;
6280;SDS011;3173;48.204;11.612;2024-02-04T00:09:48;7.20;;;4.13;;
6280;SDS011;3173;48.204;11.612;2024-02-04T00:12:14;5.20;;;4.00;;
6280;SDS011;3173;48.204;11.612;2024-02-04T00:14:40;7.10;;;4.83;;
6280;SDS011;3173;48.204;11.612;2024-02-04T00:17:06;10.83;;;4.00;;
6280;SDS011;3173;48.204;11.612;2024-02-04T00:19:32;5.20;;;4.20;;
6280;SDS011;3173;48.204;11.612;2024-02-04T00:21:58;4.13;;;3.50;;
6280;SDS011;3173;48.204;11.612;2024-02-04T00:24:24;5.23;;;3.83;;
6280;SDS011;3173;48.204;11.612;2024-02-04T00:26:50;5.30;;;3.80;;
6280;SDS011;3173;48.204;11.612;2024-02-04T00:29:16;4.03;;;3.30;;
6280;SDS011;3173;48.204;11.612;2024-02-04T00:31:42;4.50;;;3.37;;
6280;SDS011;3173;48.204;11.612;2024-02-04T00:34:08;5.70;;;3.87;;
6280;SDS011;3173;48.204;11.612;2024-02-04T00:36:34;4.50;;;3.50;;
6280;SDS011;3173;48.204;11.612;2024-02-04T00:39:00;7.53;;;3.67;;
6280;SDS011;3173;48.204;11.612;2024-02-04T00:41:26;5.23;;;3.53;;
6280;SDS011;3173;48.204;11.612;2024-02-04T00:43:52;4.80;;;3.30;;
6280;SDS011;3173;48.204;11.612;2024-02-04T00:46:18;4.53;;;2.93;;
6280;SDS011;3173;48.204;11.612;2024-02-04T00:48:44;4.37;;;3.13;;
6280;SDS011;3173;48.204;11.612;2024-02-04T00:51:10;3.57;;;2.97;;
6280;SDS011;3173;48.204;11.612;2024-02-04T00:53:38;4.37;;;3.07;;
6280;SDS011;3173;48.204;11.612;2024-02-04T00:56:04;4.33;;;3.13;;
6280;SDS011;3173;48.204;11.612;2024-02-04T00:58:30;5.00;;;3.10;;
6280;SDS011;3173;48.204;11.612;2024-02-04T01:00:56;5.27;;;2.90;;
6280;SDS011;3173;48.204;11.612;2024-02-04T01:03:22;3.37;;;2.80;;
6280;SDS011;3173;48.204;11.612;2024-02-04T01:05:48;4.10;;;2.80;;
6280;SDS011;3173;48.204;11.612;2024-02-04T01:08:14;6.07;;;3.47;;
6280;SDS011;3173;48.204;11.612;2024-02-04T01:10:40;3.53;;;2.67;;
6280;SDS011;3173;48.204;11.612;2024-02-04T01:13:06;2.67;;;2.47;;
6280;SDS011;3173;48.204;11.612;2024-02-04T01:15:32;4.73;;;3.10;;
6280;SDS011;3173;48.204;11.612;2024-02-04T01:17:58;3.73;;;2.70;;
6280;SDS011;3173;48.204;11.612;2024-02-04T01:20:24;3.30;;;2.70;;
6280;SDS011;3173;48.204;11.612;2024-02-04T01:22:50;4.43;;;2.97;;
6280;SDS011;3173;48.204;11.612;2024-02-04T01:25:16;3.40;;;2.87;;
6280;SDS011;3173;48.204;11.612;2024-02-04T01:27:41;3.63;;;2.83;;
6280;SDS011;3173;48.204;11.612;2024-02-04T01:30:07;3.97;;;3.03;;
6280;SDS011;3173;48.204;11.612;2024-02-04T01:32:33;4.87;;;3.50;;
6280;SDS011;3173;48.204;11.612;2024-02-04T01:34:59;5.50;;;3.50;;
6280;SDS011;3173;48.204;11.612;2024-02-04T01:37:25;4.07;;;3.23;;
6280;SDS011;3173;48.204;11.612;2024-02-04T01:39:51;6.47;;;3.70;;
6280;SDS011;3173;48.204;11.612;2024-02-04T01:42:17;4.70;;;3.50;;
6280;SDS011;3173;48.204;11.612;2024-02-04T01:44:43;4.27;;;3.60;;
6280;SDS011;3173;48.204;11.612;2024-02-04T01:47:09;4.67;;;3.77;;
6280;SDS011;3173;48.204;11.612;2024-02-04T01:49:36;4.53;;;3.80;;
6280;SDS011;3173;48.204;11.612;2024-02-04T01:52:03;5.43;;;3.97;;
6280;SDS011;3173;48.204;11.612;2024-02-04T01:54:30;4.43;;;4.00;;
6280;SDS011;3173;48.204;11.612;2024-02-04T01:56:56;4.60;;;3.80;;
6280;SDS011;3173;48.204;11.612;2024-02-04T01:59:24;6.43;;;4.00;;
6280;SDS011;3173;48.204;11.612;2024-02-04T02:01:53;5.40;;;3.70;;
6280;SDS011;3173;48.204;11.612;2024-02-04T02:04:19;4.90;;;4.00;;
6280;SDS011;3173;48.204;11.612;2024-02-04T02:06:45;5.67;;;3.77;;
6280;SDS011;3173;48.204;11.612;2024-02-04T02:09:12;5.23;;;3.67;;
6280;SDS011;3173;48.204;11.612;2024-02-04T02:11:43;4.57;;;3.37;;
6280;SDS011;3173;48.204;11.612;2024-02-04T02:14:14;12.83;;;4.07;;
6280;SDS011;3173;48.204;11.612;2024-02-04T02:16:40;4.53;;;3.50;;
6280;SDS011;3173;48.204;11.612;2024-02-04T02:19:53;3.03;;;2.73;;
6280;SDS011;3173;48.204;11.612;2024-02-04T02:26:48;3.70;;;2.90;;
6280;SDS011;3173;48.204;11.612;2024-02-04T02:29:15;3.10;;;2.60;;
6280;SDS011;3173;48.204;11.612;2024-02-04T02:31:41;6.70;;;3.30;;
6280;SDS011;3173;48.204;11.612;2024-02-04T02:34:08;3.27;;;2.50;;
6280;SDS011;3173;48.204;11.612;2024-02-04T02:36:36;4.60;;;2.67;;
6280;SDS011;3173;48.204;11.612;2024-02-04T02:39:09;3.80;;;2.80;;
6280;SDS011;3173;48.204;11.612;2024-02-04T02:41:38;4.43;;;2.50;;
6280;SDS011;3173;48.204;11.612;2024-02-04T02:44:05;3.67;;;2.23;;
6280;SDS011;3173;48.204;11.612;2024-02-04T02:46:33;2.20;;;2.00;;
6280;SDS011;3173;48.204;11.612;2024-02-04T02:48:59;2.40;;;2.10;;
6280;SDS011;3173;48.204;11.612;2024-02-04T02:51:25;2.80;;;2.20;;
6280;SDS011;3173;48.204;11.612;2024-02-04T02:53:51;4.17;;;2.57;;
6280;SDS011;3173;48.204;11.612;2024-02-04T02:56:17;3.03;;;2.50;;
6280;SDS011;3173;48.204;11.612;2024-02-04T02:58:43;3.33;;;2.33;;
6280;SDS011;3173;48.204;11.612;2024-02-04T03:01:09;4.80;;;2.43;;
6280;SDS011;3173;48.204;11.612;2024-02-04T03:03:35;3.03;;;2.27;;
6280;SDS011;3173;48.204;11.612;2024-02-04T03:06:01;4.33;;;2.33;;
6280;SDS011;3173;48.204;11.612;2024-02-04T03:11:31;3.40;;;2.50;;
6280;SDS011;3173;48.204;11.612;2024-02-04T03:13:57;3.20;;;2.20;;
6280;SDS011;3173;48.204;11.612;2024-02-04T03:16:23;4.00;;;2.97;;
6280;SDS011;3173;48.204;11.612;2024-02-04T03:18:51;4.07;;;2.50;;
6280;SDS011;3173;48.204;11.612;2024-02-04T03:21:17;4.67;;;2.80;;
6280;SDS011;3173;48.204;11.612;2024-02-04T03:23:44;2.67;;;2.33;;
6280;SDS011;3173;48.204;11.612;2024-02-04T03:26:10;3.40;;;2.60;;
6280;SDS011;3173;48.204;11.612;2024-02-04T03:28:36;3.53;;;2.70;;
6280;SDS011;3173;48.204;11.612;2024-02-04T03:31:03;3.50;;;2.57;;
6280;SDS011;3173;48.204;11.612;2024-02-04T03:33:29;4.27;;;2.80;;
6280;SDS011;3173;48.204;11.612;2024-02-04T03:35:55;3.40;;;2.57;;
6280;SDS011;3173;48.204;11.612;2024-02-04T03:38:21;3.13;;;2.43;;
6280;SDS011;3173;48.204;11.612;2024-02-04T03:40:47;3.70;;;2.43;;
6280;SDS011;3173;48.204;11.612;2024-02-04T03:43:14;3.90;;;2.60;;
6280;SDS011;3173;48.204;11.612;2024-02-04T03:45:40;4.00;;;2.50;;
6280;SDS011;3173;48.204;11.612;2024-02-04T03:48:07;3.47;;;2.30;;
6280;SDS011;3173;48.204;11.612;2024-02-04T03:50:33;3.40;;;2.57;;
6280;SDS011;3173;48.204;11.612;2024-02-04T03:52:59;3.50;;;2.37;;
6280;SDS011;3173;48.204;11.612;2024-02-04T03:55:25;4.07;;;3.00;;
6280;SDS011;3173;48.204;11.612;2024-02-04T03:57:51;2.67;;;2.23;;
6280;SDS011;3173;48.204;11.612;2024-02-04T04:00:17;4.20;;;2.90;;
6280;SDS011;3173;48.204;11.612;2024-02-04T04:02:44;3.50;;;2.90;;
6280;SDS011;3173;48.204;11.612;2024-02-04T04:05:10;3.47;;;2.67;;
6280;SDS011;3173;48.204;11.612;2024-02-04T04:07:39;4.13;;;2.93;;
6280;SDS011;3173;48.204;11.612;2024-02-04T04:10:06;5.90;;;3.17;;
6280;SDS011;3173;48.204;11.612;2024-02-04T04:12:32;4.07;;;2.97;;
6280;SDS011;3173;48.204;11.612;2024-02-04T04:14:58;5.67;;;3.50;;
6280;SDS011;3173;48.204;11.612;2024-02-04T04:17:24;3.83;;;2.70;;
6280;SDS011;3173;48.204;11.612;2024-02-04T04:19:50;5.13;;;3.07;;
6280;SDS011;3173;48.204;11.612;2024-02-04T04:22:17;4.60;;;2.83;;
6280;SDS011;3173;48.204;11.612;2024-02-04T04:24:43;3.90;;;2.60;;
6280;SDS011;3173;48.204;11.612;2024-02-04T04:27:09;4.50;;;2.77;;
6280;SDS011;3173;48.204;11.612;2024-02-04T04:29:35;4.43;;;2.80;;
6280;SDS011;3173;48.204;11.612;2024-02-04T04:32:01;3.57;;;2.77;;
6280;SDS011;3173;48.204;11.612;2024-02-04T04:34:27;3.70;;;2.47;;
6280;SDS011;3173;48.204;11.612;2024-02-04T04:36:53;3.57;;;2.90;;
6280;SDS011;3173;48.204;11.612;2024-02-04T04:39:20;3.57;;;2.40;;
6280;SDS011;3173;48.204;11.612;2024-02-04T04:41:46;3.77;;;2.83;;
6280;SDS011;3173;48.204;11.612;2024-02-04T04:44:12;3.67;;;2.90;;
6280;SDS011;3173;48.204;11.612;2024-02-04T04:46:38;3.93;;;2.83;;
6280;SDS011;3173;48.204;11.612;2024-02-04T04:49:05;3.70;;;2.47;;
6280;SDS011;3173;48.204;11.612;2024-02-04T04:51:31;3.73;;;2.60;;
6280;SDS011;3173;48.204;11.612;2024-02-04T04:53:58;5.23;;;3.00;;
6280;SDS011;3173;48.204;11.612;2024-02-04T04:56:24;3.73;;;2.80;;
6280;SDS011;3173;48.204;11.612;2024-02-04T04:58:50;3.37;;;2.90;;
6280;SDS011;3173;48.204;11.612;2024-02-04T05:01:16;3.20;;;2.70;;
6280;SDS011;3173;48.204;11.612;2024-02-04T05:03:43;3.50;;;2.30;;
6280;SDS011;3173;48.204;11.612;2024-02-04T05:06:10;3.50;;;2.90;;
6280;SDS011;3173;48.204;11.612;2024-02-04T05:08:36;4.77;;;2.80;;
6280;SDS011;3173;48.204;11.612;2024-02-04T05:11:02;3.67;;;2.57;;
6280;SDS011;3173;48.204;11.612;2024-02-04T05:13:28;3.30;;;2.37;;
6280;SDS011;3173;48.204;11.612;2024-02-04T05:15:54;3.20;;;2.50;;
6280;SDS011;3173;48.204;11.612;2024-02-04T05:18:20;3.87;;;2.30;;
6280;SDS011;3173;48.204;11.612;2024-02-04T05:20:47;2.70;;;2.30;;
6280;SDS011;3173;48.204;11.612;2024-02-04T05:23:13;3.37;;;2.20;;
6280;SDS011;3173;48.204;11.612;2024-02-04T05:25:39;2.10;;;1.87;;
6280;SDS011;3173;48.204;11.612;2024-02-04T05:28:06;3.00;;;2.40;;
6280;SDS011;3173;48.204;11.612;2024-02-04T05:30:32;2.87;;;1.77;;
6280;SDS011;3173;48.204;11.612;2024-02-04T05:32:58;3.70;;;2.30;;
6280;SDS011;3173;48.204;11.612;2024-02-04T05:35:24;3.43;;;1.80;;
6280;SDS011;3173;48.204;11.612;2024-02-04T05:37:50;3.63;;;2.40;;
6280;SDS011;3173;48.204;11.612;2024-02-04T05:40:16;4.20;;;2.20;;
6280;SDS011;3173;48.204;11.612;2024-02-04T05:42:45;3.97;;;2.23;;
6280;SDS011;3173;48.204;11.612;2024-02-04T05:45:11;3.93;;;2.53;;
6280;SDS011;3173;48.204;11.612;2024-02-04T05:47:37;3.70;;;2.20;;
6280;SDS011;3173;48.204;11.612;2024-02-04T05:50:03;3.63;;;2.27;;
6280;SDS011;3173;48.204;11.612;2024-02-04T05:52:30;3.63;;;2.23;;
6280;SDS011;3173;48.204;11.612;2024-02-04T05:54:56;3.50;;;2.57;;
6280;SDS011;3173;48.204;11.612;2024-02-04T05:57:22;2.77;;;2.23;;
6280;SDS011;3173;48.204;11.612;2024-02-04T05:59:49;2.97;;;2.33;;
6280;SDS011;3173;48.204;11.612;2024-02-04T06:02:17;3.40;;;2.30;;
6280;SDS011;3173;48.204;11.612;2024-02-04T06:04:44;3.80;;;2.40;;
6280;SDS011;3173;48.204;11.612;2024-02-04T06:07:11;7.20;;;2.17;;
6280;SDS011;3173;48.204;11.612;2024-02-04T06:09:37;4.30;;;2.47;;
6280;SDS011;3173;48.204;11.612;2024-02-04T06:12:03;2.97;;;1.90;;
6280;SDS011;3173;48.204;11.612;2024-02-04T06:14:32;3.57;;;1.90;;
6280;SDS011;3173;48.204;11.612;2024-02-04T06:16:59;2.60;;;2.03;;
6280;SDS011;3173;48.204;11.612;2024-02-04T06:19:25;4.13;;;2.33;;
6280;SDS011;3173;48.204;11.612;2024-02-04T06:21:52;4.00;;;2.13;;
6280;SDS011;3173;48.204;11.612;2024-02-04T06:24:18;3.40;;;2.50;;
6280;SDS011;3173;48.204;11.612;2024-02-04T06:26:45;4.23;;;2.47;;
6280;SDS011;3173;48.204;11.612;2024-02-04T06:29:11;4.70;;;2.43;;
6280;SDS011;3173;48.204;11.612;2024-02-04T06:31:37;3.70;;;2.60;;
6280;SDS011;3173;48.204;11.612;2024-02-04T06:34:04;3.70;;;2.30;;
6280;SDS011;3173;48.204;11.612;2024-02-04T06:36:30;5.87;;;3.00;;
6280;SDS011;3173;48.204;11.612;2024-02-04T06:38:56;5.30;;;2.77;;
6280;SDS011;3173;48.204;11.612;2024-02-04T06:41:22;4.27;;;2.83;;
6280;SDS011;3173;48.204;11.612;2024-02-04T06:43:48;3.63;;;2.73;;
6280;SDS011;3173;48.204;11.612;2024-02-04T06:46:23;5.43;;;3.30;;
6280;SDS011;3173;48.204;11.612;2024-02-04T06:48:49;5.30;;;3.60;;
6280;SDS011;3173;48.204;11.612;2024-02-04T06:51:15;9.93;;;3.23;;
6280;SDS011;3173;48.204;11.612;2024-02-04T06:53:41;5.30;;;3.40;;
6280;SDS011;3173;48.204;11.612;2024-02-04T06:56:07;9.27;;;3.33;;
6280;SDS011;3173;48.204;11.612;2024-02-04T06:58:36;6.90;;;3.37;;
6280;SDS011;3173;48.204;11.612;2024-02-04T07:01:02;9.70;;;3.70;;
6280;SDS011;3173;48.204;11.612;2024-02-04T07:03:29;5.50;;;3.30;;
6280;SDS011;3173;48.204;11.612;2024-02-04T07:05:56;4.77;;;3.17;;
6280;SDS011;3173;48.204;11.612;2024-02-04T07:08:22;4.33;;;2.70;;
6280;SDS011;3173;48.204;11.612;2024-02-04T07:10:48;6.87;;;3.40;;
6280;SDS011;3173;48.204;11.612;2024-02-04T07:13:14;10.63;;;3.90;;
6280;SDS011;3173;48.204;11.612;2024-02-04T07:15:40;15.03;;;3.90;;
6280;SDS011;3173;48.204;11.612;2024-02-04T07:18:07;5.53;;;3.03;;
6280;SDS011;3173;48.204;11.612;2024-02-04T07:20:33;10.83;;;3.53;;
6280;SDS011;3173;48.204;11.612;2024-02-04T07:22:59;8.60;;;3.67;;
6280;SDS011;3173;48.204;11.612;2024-02-04T07:25:25;7.60;;;3.33;;
6280;SDS011;3173;48.204;11.612;2024-02-04T07:27:51;4.77;;;3.33;;
6280;SDS011;3173;48.204;11.612;2024-02-04T07:30:18;6.50;;;3.67;;
6280;SDS011;3173;48.204;11.612;2024-02-04T07:32:45;5.10;;;3.27;;
6280;SDS011;3173;48.204;11.612;2024-02-04T07:35:12;5.90;;;3.00;;
6280;SDS011;3173;48.204;11.612;2024-02-04T07:37:38;6.03;;;3.57;;
6280;SDS011;3173;48.204;11.612;2024-02-04T07:40:04;6.00;;;3.50;;
6280;SDS011;3173;48.204;11.612;2024-02-04T07:42:31;4.90;;;3.40;;
6280;SDS011;3173;48.204;11.612;2024-02-04T07:44:57;4.00;;;3.10;;
6280;SDS011;3173;48.204;11.612;2024-02-04T07:47:24;6.00;;;3.27;;
6280;SDS011;3173;48.204;11.612;2024-02-04T07:49:50;5.00;;;2.73;;
6280;SDS011;3173;48.204;11.612;2024-02-04T07:52:16;4.03;;;3.37;;
6280;SDS011;3173;48.204;11.612;2024-02-04T07:54:43;5.10;;;3.20;;
6280;SDS011;3173;48.204;11.612;2024-02-04T07:57:09;6.53;;;3.50;;
6280;SDS011;3173;48.204;11.612;2024-02-04T07:59:35;6.53;;;3.40;;
6280;SDS011;3173;48.204;11.612;2024-02-04T08:02:01;5.33;;;2.90;;
6280;SDS011;3173;48.204;11.612;2024-02-04T08:04:28;6.47;;;2.50;;
6280;SDS011;3173;48.204;11.612;2024-02-04T08:06:54;5.50;;;3.20;;
6280;SDS011;3173;48.204;11.612;2024-02-04T08:09:20;6.43;;;3.13;;
6280;SDS011;3173;48.204;11.612;2024-02-04T08:11:46;8.10;;;3.00;;
6280;SDS011;3173;48.204;11.612;2024-02-04T08:14:12;4.90;;;3.07;;
6280;SDS011;3173;48.204;11.612;2024-02-04T08:16:42;5.90;;;3.20;;
6280;SDS011;3173;48.204;11.612;2024-02-04T08:19:09;4.40;;;2.70;;
6280;SDS011;3173;48.204;11.612;2024-02-04T08:21:35;6.67;;;3.07;;
6280;SDS011;3173;48.204;11.612;2024-02-04T08:24:01;3.80;;;2.40;;
6280;SDS011;3173;48.204;11.612;2024-02-04T08:26:27;6.50;;;3.13;;
6280;SDS011;3173;48.204;11.612;2024-02-04T08:28:53;6.80;;;2.77;;
6280;SDS011;3173;48.204;11.612;2024-02-04T08:31:19;5.00;;;2.40;;
6280;SDS011;3173;48.204;11.612;2024-02-04T08:33:46;8.10;;;2.70;;
6280;SDS011;3173;48.204;11.612;2024-02-04T08:36:12;3.20;;;2.40;;
6280;SDS011;3173;48.204;11.612;2024-02-04T08:38:38;7.63;;;2.80;;
6280;SDS011;3173;48.204;11.612;2024-02-04T08:41:04;4.70;;;2.30;;
6280;SDS011;3173;48.204;11.612;2024-02-04T08:43:30;5.80;;;2.50;;
6280;SDS011;3173;48.204;11.612;2024-02-04T08:45:56;3.70;;;2.60;;
6280;SDS011;3173;48.204;11.612;2024-02-04T08:48:23;3.23;;;1.90;;
6280;SDS011;3173;48.204;11.612;2024-02-04T08:50:49;7.10;;;2.33;;
6280;SDS011;3173;48.204;11.612;2024-02-04T08:53:15;6.47;;;2.30;;
6280;SDS011;3173;48.204;11.612;2024-02-04T08:55:41;7.13;;;2.40;;
6280;SDS011;3173;48.204;11.612;2024-02-04T08:58:07;6.03;;;2.30;;
6280;SDS011;3173;48.204;11.612;2024-02-04T09:00:33;6.30;;;2.20;;
6280;SDS011;3173;48.204;11.612;2024-02-04T09:02:59;4.53;;;2.27;;
6280;SDS011;3173;48.204;11.612;2024-02-04T09:05:25;11.83;;;2.20;;
6280;SDS011;3173;48.204;11.612;2024-02-04T09:07:51;3.00;;;2.10;;
6280;SDS011;3173;48.204;11.612;2024-02-04T09:10:20;2.30;;;1.70;;
6280;SDS011;3173;48.204;11.612;2024-02-04T09:12:46;7.33;;;2.20;;
6280;SDS011;3173;48.204;11.612;2024-02-04T09:15:12;4.50;;;2.20;;
6280;SDS011;3173;48.204;11.612;2024-02-04T09:17:38;4.60;;;1.80;;
6280;SDS011;3173;48.204;11.612;2024-02-04T09:20:04;8.73;;;1.70;;
6280;SDS011;3173;48.204;11.612;2024-02-04T09:22:31;4.43;;;2.30;;
6280;SDS011;3173;48.204;11.612;2024-02-04T09:24:57;3.50;;;1.50;;
6280;SDS011;3173;48.204;11.612;2024-02-04T09:27:23;5.97;;;2.00;;
6280;SDS011;3173;48.204;11.612;2024-02-04T09:29:50;5.77;;;1.83;;
6280;SDS011;3173;48.204;11.612;2024-02-04T09:32:16;7.03;;;2.60;;
6280;SDS011;3173;48.204;11.612;2024-02-04T09:34:42;5.20;;;1.60;;
6280;SDS011;3173;48.204;11.612;2024-02-04T09:37:08;6.67;;;2.20;;
6280;SDS011;3173;48.204;11.612;2024-02-04T09:39:34;5.67;;;2.07;;
6280;SDS011;3173;48.204;11.612;2024-02-04T09:42:01;5.87;;;1.77;;
6280;SDS011;3173;48.204;11.612;2024-02-04T09:44:27;3.70;;;2.00;;
6280;SDS011;3173;48.204;11.612;2024-02-04T09:46:53;11.23;;;1.97;;
6280;SDS011;3173;48.204;11.612;2024-02-04T09:49:23;5.10;;;2.10;;
6280;SDS011;3173;48.204;11.612;2024-02-04T09:51:50;4.83;;;2.10;;
6280;SDS011;3173;48.204;11.612;2024-02-04T09:54:16;3.30;;;1.70;;
6280;SDS011;3173;48.204;11.612;2024-02-04T09:56:44;4.40;;;2.17;;
6280;SDS011;3173;48.204;11.612;2024-02-04T09:59:10;7.73;;;2.07;;
6280;SDS011;3173;48.204;11.612;2024-02-04T10:01:36;3.40;;;1.87;;
6280;SDS011;3173;48.204;11.612;2024-02-04T10:04:02;3.00;;;1.93;;
6280;SDS011;3173;48.204;11.612;2024-02-04T10:06:28;7.63;;;2.00;;
6280;SDS011;3173;48.204;11.612;2024-02-04T10:08:54;5.57;;;2.50;;
6280;SDS011;3173;48.204;11.612;2024-02-04T10:11:21;5.17;;;2.20;;
6280;SDS011;3173;48.204;11.612;2024-02-04T10:13:48;4.00;;;2.03;;
6280;SDS011;3173;48.204;11.612;2024-02-04T10:16:14;3.10;;;2.17;;
6280;SDS011;3173;48.204;11.612;2024-02-04T10:18:41;4.50;;;1.83;;
6280;SDS011;3173;48.204;11.612;2024-02-04T10:21:20;3.97;;;2.40;;
6280;SDS011;3173;48.204;11.612;2024-02-04T10:23:48;4.63;;;1.93;;
6280;SDS011;3173;48.204;11.612;2024-02-04T10:26:14;3.60;;;2.30;;
6280;SDS011;3173;48.204;11.612;2024-02-04T10:28:40;7.47;;;2.47;;
6280;SDS011;3173;48.204;11.612;2024-02-04T10:31:08;5.20;;;2.97;;
6280;SDS011;3173;48.204;11.612;2024-02-04T10:33:37;6.30;;;2.40;;
6280;SDS011;3173;48.204;11.612;2024-02-04T10:36:03;8.90;;;2.13;;
6280;SDS011;3173;48.204;11.612;2024-02-04T10:38:30;4.73;;;1.97;;
6280;SDS011;3173;48.204;11.612;2024-02-04T10:40:56;5.70;;;2.23;;
6280;SDS011;3173;48.204;11.612;2024-02-04T10:43:24;4.07;;;2.20;;
6280;SDS011;3173;48.204;11.612;2024-02-04T10:45:53;3.87;;;1.70;;
6280;SDS011;3173;48.204;11.612;2024-02-04T10:48:22;8.40;;;2.10;;
6280;SDS011;3173;48.204;11.612;2024-02-04T10:50:50;8.33;;;2.30;;
6280;SDS011;3173;48.204;11.612;2024-02-04T10:53:16;5.10;;;1.80;;
6280;SDS011;3173;48.204;11.612;2024-02-04T10:55:45;2.70;;;1.70;;
6280;SDS011;3173;48.204;11.612;2024-02-04T10:58:12;4.47;;;1.80;;
6280;SDS011;3173;48.204;11.612;2024-02-04T11:00:42;6.67;;;2.43;;
6280;SDS011;3173;48.204;11.612;2024-02-04T11:03:08;3.57;;;1.60;;
6280;SDS011;3173;48.204;11.612;2024-02-04T11:05:34;4.93;;;1.60;;
6280;SDS011;3173;48.204;11.612;2024-02-04T11:08:03;3.50;;;1.73;;
6280;SDS011;3173;48.204;11.612;2024-02-04T11:10:30;4.67;;;1.80;;
6280;SDS011;3173;48.204;11.612;2024-02-04T11:13:00;8.00;;;2.17;;
6280;SDS011;3173;48.204;11.612;2024-02-04T11:15:29;4.73;;;1.67;;
6280;SDS011;3173;48.204;11.612;2024-02-04T11:25:52;3.03;;;1.57;;
6280;SDS011;3173;48.204;11.612;2024-02-04T11:28:23;4.20;;;1.20;;
6280;SDS011;3173;48.204;11.612;2024-02-04T11:30:50;2.33;;;1.30;;
6280;SDS011;3173;48.204;11.612;2024-02-04T11:33:20;3.20;;;1.43;;
6280;SDS011;3173;48.204;11.612;2024-02-04T11:35:47;2.23;;;1.50;;
6280;SDS011;3173;48.204;11.612;2024-02-04T11:38:17;2.37;;;1.37;;
6280;SDS011;3173;48.204;11.612;2024-02-04T11:40:43;3.80;;;1.47;;
6280;SDS011;3173;48.204;11.612;2024-02-04T11:43:11;4.00;;;1.50;;
6280;SDS011;3173;48.204;11.612;2024-02-04T11:45:41;2.07;;;1.03;;
6280;SDS011;3173;48.204;11.612;2024-02-04T11:48:08;6.40;;;1.27;;
6280;SDS011;3173;48.204;11.612;2024-02-04T11:50:35;3.57;;;1.07;;
6280;SDS011;3173;48.204;11.612;2024-02-04T11:53:11;5.77;;;1.40;;
6280;SDS011;3173;48.204;11.612;2024-02-04T11:55:41;3.20;;;1.17;;
6280;SDS011;3173;48.204;11.612;2024-02-04T11:58:08;2.90;;;1.10;;
6280;SDS011;3173;48.204;11.612;2024-02-04T12:00:37;2.00;;;0.80;;
6280;SDS011;3173;48.204;11.612;2024-02-04T12:03:06;2.80;;;1.00;;
6280;SDS011;3173;48.204;11.612;2024-02-04T12:05:33;5.90;;;1.20;;
6280;SDS011;3173;48.204;11.612;2024-02-04T12:08:03;3.10;;;1.00;;
6280;SDS011;3173;48.204;11.612;2024-02-04T12:10:30;2.27;;;1.37;;
6280;SDS011;3173;48.204;11.612;2024-02-04T12:12:57;1.70;;;1.10;;
6280;SDS011;3173;48.204;11.612;2024-02-04T12:15:23;3.17;;;1.33;;
6280;SDS011;3173;48.204;11.612;2024-02-04T12:17:49;3.87;;;1.47;;
6280;SDS011;3173;48.204;11.612;2024-02-04T12:20:15;3.60;;;1.40;;
6280;SDS011;3173;48.204;11.612;2024-02-04T12:22:42;4.40;;;1.40;;
6280;SDS011;3173;48.204;11.612;2024-02-04T12:25:08;3.20;;;1.20;;
6280;SDS011;3173;48.204;11.612;2024-02-04T12:27:34;4.90;;;1.30;;
6280;SDS011;3173;48.204;11.612;2024-02-04T12:30:01;2.87;;;1.00;;
6280;SDS011;3173;48.204;11.612;2024-02-04T12:32:27;2.20;;;1.00;;
6280;SDS011;3173;48.204;11.612;2024-02-04T12:34:53;2.43;;;1.13;;
6280;SDS011;3173;48.204;11.612;2024-02-04T12:37:21;3.20;;;1.10;;
6280;SDS011;3173;48.204;11.612;2024-02-04T12:39:47;5.43;;;1.30;;
6280;SDS011;3173;48.204;11.612;2024-02-04T12:42:17;4.83;;;1.50;;
6280;SDS011;3173;48.204;11.612;2024-02-04T12:44:46;5.13;;;1.63;;
6280;SDS011;3173;48.204;11.612;2024-02-04T12:47:12;3.17;;;1.57;;
6280;SDS011;3173;48.204;11.612;2024-02-04T12:49:39;3.80;;;1.53;;
6280;SDS011;3173;48.204;11.612;2024-02-04T12:52:06;6.43;;;1.10;;
6280;SDS011;3173;48.204;11.612;2024-02-04T12:54:44;2.60;;;1.10;;
6280;SDS011;3173;48.204;11.612;2024-02-04T12:57:20;2.73;;;1.20;;
6280;SDS011;3173;48.204;11.612;2024-02-04T12:59:47;2.67;;;1.40;;
6280;SDS011;3173;48.204;11.612;2024-02-04T13:02:13;1.43;;;1.10;;
6280;SDS011;3173;48.204;11.612;2024-02-04T13:04:40;3.10;;;1.20;;
6280;SDS011;3173;48.204;11.612;2024-02-04T13:09:42;3.20;;;1.40;;
6280;SDS011;3173;48.204;11.612;2024-02-04T13:12:09;2.20;;;1.10;;
6280;SDS011;3173;48.204;11.612;2024-02-04T13:14:36;2.60;;;1.13;;
6280;SDS011;3173;48.204;11.612;2024-02-04T13:17:02;1.50;;;1.00;;
6280;SDS011;3173;48.204;11.612;2024-02-04T13:19:35;2.30;;;1.03;;
6280;SDS011;3173;48.204;11.612;2024-02-04T13:22:02;1.70;;;1.00;;
6280;SDS011;3173;48.204;11.612;2024-02-04T13:24:32;3.80;;;1.20;;
6280;SDS011;3173;48.204;11.612;2024-02-04T13:26:58;4.07;;;1.43;;
6280;SDS011;3173;48.204;11.612;2024-02-04T13:29:26;6.03;;;2.17;;
6280;SDS011;3173;48.204;11.612;2024-02-04T13:31:52;6.23;;;1.57;;
6280;SDS011;3173;48.204;11.612;2024-02-04T13:34:18;2.40;;;1.50;;
6280;SDS011;3173;48.204;11.612;2024-02-04T13:36:45;5.10;;;1.90;;
6280;SDS011;3173;48.204;11.612;2024-02-04T13:39:12;4.17;;;1.30;;
6280;SDS011;3173;48.204;11.612;2024-02-04T13:41:38;7.13;;;2.13;;
6280;SDS011;3173;48.204;11.612;2024-02-04T13:44:04;3.87;;;1.80;;
6280;SDS011;3173;48.204;11.612;2024-02-04T13:46:31;3.57;;;1.67;;
6280;SDS011;3173;48.204;11.612;2024-02-04T13:48:57;3.60;;;1.90;;
6280;SDS011;3173;48.204;11.612;2024-02-04T13:51:23;2.67;;;2.07;;
6280;SDS011;3173;48.204;11.612;2024-02-04T13:53:49;2.60;;;1.60;;
6280;SDS011;3173;48.204;11.612;2024-02-04T13:56:15;4.67;;;1.93;;
6280;SDS011;3173;48.204;11.612;2024-02-04T13:58:44;2.73;;;1.83;;
6280;SDS011;3173;48.204;11.612;2024-02-04T14:01:10;2.90;;;1.87;;
6280;SDS011;3173;48.204;11.612;2024-02-04T14:03:38;6.33;;;1.80;;
6280;SDS011;3173;48.204;11.612;2024-02-04T14:06:04;3.63;;;2.40;;
6280;SDS011;3173;48.204;11.612;2024-02-04T14:08:30;4.53;;;2.47;;
6280;SDS011;3173;48.204;11.612;2024-02-04T14:10:56;3.77;;;2.00;;
6280;SDS011;3173;48.204;11.612;2024-02-04T14:13:22;5.20;;;1.90;;
6280;SDS011;3173;48.204;11.612;2024-02-04T14:15:48;3.60;;;2.00;;
6280;SDS011;3173;48.204;11.612;2024-02-04T14:18:14;8.17;;;3.40;;
6280;SDS011;3173;48.204;11.612;2024-02-04T14:20:40;2.77;;;1.80;;
6280;SDS011;3173;48.204;11.612;2024-02-04T14:23:07;5.70;;;1.90;;
6280;SDS011;3173;48.204;11.612;2024-02-04T14:25:34;3.83;;;2.03;;
6280;SDS011;3173;48.204;11.612;2024-02-04T14:28:00;2.60;;;1.77;;
6280;SDS011;3173;48.204;11.612;2024-02-04T14:30:26;8.50;;;1.80;;
6280;SDS011;3173;48.204;11.612;2024-02-04T14:32:52;5.07;;;1.43;;
6280;SDS011;3173;48.204;11.612;2024-02-04T14:35:18;3.57;;;1.57;;
6280;SDS011;3173;48.204;11.612;2024-02-04T14:37:44;3.33;;;1.70;;
6280;SDS011;3173;48.204;11.612;2024-02-04T14:40:10;4.23;;;1.57;;
6280;SDS011;3173;48.204;11.612;2024-02-04T14:42:37;4.47;;;1.67;;
6280;SDS011;3173;48.204;11.612;2024-02-04T14:45:03;3.47;;;1.90;;
6280;SDS011;3173;48.204;11.612;2024-02-04T14:47:31;2.20;;;1.60;;
6280;SDS011;3173;48.204;11.612;2024-02-04T14:49:57;7.07;;;2.77;;
6280;SDS011;3173;48.204;11.612;2024-02-04T14:52:23;5.37;;;1.73;;
6280;SDS011;3173;48.204;11.612;2024-02-04T14:54:49;4.53;;;1.60;;
6280;SDS011;3173;48.204;11.612;2024-02-04T14:57:15;5.63;;;1.80;;
6280;SDS011;3173;48.204;11.612;2024-02-04T14:59:41;6.63;;;1.70;;
6280;SDS011;3173;48.204;11.612;2024-02-04T15:02:08;3.80;;;1.70;;
6280;SDS011;3173;48.204;11.612;2024-02-04T15:04:34;4.00;;;2.03;;
6280;SDS011;3173;48.204;11.612;2024-02-04T15:07:00;5.57;;;1.90;;
6280;SDS011;3173;48.204;11.612;2024-02-04T15:09:32;9.40;;;1.80;;
6280;SDS011;3173;48.204;11.612;2024-02-04T15:11:59;7.10;;;1.80;;
6280;SDS011;3173;48.204;11.612;2024-02-04T15:14:25;4.47;;;1.80;;